createdAt,value
2023-03-10T00:00:22.287Z,0
2023-03-10T00:01:29.000Z,0
2023-03-10T00:02:45.000Z,0
2023-03-10T00:04:01.000Z,0
2023-03-10T00:05:26.830Z,0
2023-03-10T00:06:43.273Z,0
2023-03-10T00:07:50.000Z,0
2023-03-10T00:09:06.000Z,0
2023-03-10T00:10:31.614Z,0
2023-03-10T00:11:38.000Z,0
2023-03-10T00:12:55.000Z,0
2023-03-10T00:14:20.200Z,0
2023-03-10T00:15:36.396Z,0
2023-03-10T00:16:42.000Z,0
2023-03-10T00:17:58.000Z,0
2023-03-10T00:19:23.999Z,0
2023-03-10T00:20:40.453Z,0
2023-03-10T00:21:56.391Z,0
2023-03-10T00:23:12.588Z,0
2023-03-10T00:24:28.060Z,0
2023-03-10T00:25:07.000Z,0
2023-03-10T00:25:43.268Z,0
2023-03-10T00:26:58.244Z,0
2023-03-10T00:28:13.710Z,0
2023-03-10T00:29:20.000Z,0
2023-03-10T00:32:02.044Z,0
2023-03-10T00:33:18.240Z,0
2023-03-10T00:34:34.435Z,0
2023-03-10T00:35:50.631Z,0
2023-03-10T00:37:06.827Z,0
2023-03-10T00:38:14.000Z,0
2023-03-10T00:39:39.219Z,0
2023-03-10T00:40:55.415Z,0
2023-03-10T00:42:02.000Z,0
2023-03-10T00:43:27.808Z,0
2023-03-10T00:44:43.020Z,0
2023-03-10T00:45:59.216Z,0
2023-03-10T00:47:15.657Z,0
2023-03-10T00:48:31.609Z,0
2023-03-10T00:49:38.000Z,0
2023-03-10T00:51:04.000Z,0
2023-03-10T00:52:17.000Z,0
2023-03-10T00:53:35.667Z,0
2023-03-10T00:54:50.630Z,0
2023-03-10T00:56:05.853Z,0
2023-03-10T00:57:21.064Z,0
2023-03-10T00:58:37.261Z,0
2023-03-10T00:59:53.456Z,0
2023-03-10T01:01:09.895Z,0
2023-03-10T01:02:25.122Z,0
2023-03-10T01:03:41.065Z,0
2023-03-10T01:04:48.000Z,0
2023-03-10T01:06:13.456Z,0
2023-03-10T01:07:29.652Z,0
2023-03-10T01:08:45.848Z,0
2023-03-10T01:10:02.043Z,0
2023-03-10T01:10:44.000Z,0
2023-03-10T01:11:18.239Z,0
2023-03-10T01:12:34.434Z,0
2023-03-10T01:13:50.631Z,0
2023-03-10T01:15:06.826Z,0
2023-03-10T01:17:39.219Z,0
2023-03-10T01:18:54.681Z,0
2023-03-10T01:20:10.627Z,0
2023-03-10T01:21:26.823Z,0
2023-03-10T01:22:33.000Z,0
2023-03-10T01:23:57.257Z,0
2023-03-10T01:25:13.696Z,0
2023-03-10T01:26:29.650Z,0
2023-03-10T01:27:36.000Z,0
2023-03-10T01:29:01.068Z,0
2023-03-10T01:30:16.279Z,0
2023-03-10T01:31:32.476Z,0
2023-03-10T01:32:48.671Z,0
2023-03-10T01:34:04.867Z,0
2023-03-10T01:35:21.306Z,0
2023-03-10T01:36:37.504Z,0
2023-03-10T01:37:53.695Z,0
2023-03-10T01:39:09.910Z,0
2023-03-10T01:40:25.847Z,0
2023-03-10T01:41:42.043Z,0
2023-03-10T01:42:49.000Z,0
2023-03-10T01:44:14.690Z,0
2023-03-10T01:45:21.000Z,0
2023-03-10T01:46:46.091Z,0
2023-03-10T01:48:02.036Z,0
2023-03-10T01:49:18.229Z,0
2023-03-10T01:50:34.423Z,0
2023-03-10T01:51:50.617Z,0
2023-03-10T01:53:06.810Z,0
2023-03-10T01:54:23.244Z,0
2023-03-10T01:55:38.224Z,0
2023-03-10T01:56:53.434Z,0
2023-03-10T01:57:59.000Z,0
2023-03-10T01:59:24.848Z,0
2023-03-10T02:00:40.058Z,0
2023-03-10T02:01:56.495Z,0
2023-03-10T02:03:03.000Z,0
2023-03-10T02:04:28.888Z,0
2023-03-10T02:05:44.832Z,0
2023-03-10T02:07:01.026Z,0
2023-03-10T02:08:08.000Z,0
2023-03-10T02:09:33.413Z,0
2023-03-10T02:10:49.607Z,0
2023-03-10T02:12:06.055Z,0
2023-03-10T02:13:21.994Z,0
2023-03-10T02:14:38.436Z,0
2023-03-10T02:15:54.628Z,0
2023-03-10T02:16:36.000Z,0
2023-03-10T02:17:10.575Z,0
2023-03-10T02:18:25.784Z,0
2023-03-10T02:19:41.979Z,0
2023-03-10T02:20:58.173Z,0
2023-03-10T02:23:21.000Z,0
2023-03-10T02:24:36.000Z,0
2023-03-10T02:26:00.991Z,0
2023-03-10T02:27:17.186Z,0
2023-03-10T02:28:32.659Z,0
2023-03-10T02:29:48.843Z,0
2023-03-10T02:31:03.809Z,0
2023-03-10T02:32:11.000Z,0
2023-03-10T02:33:36.197Z,0
2023-03-10T02:34:52.390Z,0
2023-03-10T02:36:08.584Z,0
2023-03-10T02:37:25.031Z,0
2023-03-10T02:38:40.971Z,0
2023-03-10T02:39:57.166Z,0
2023-03-10T02:41:13.600Z,0
2023-03-10T02:42:29.796Z,0
2023-03-10T02:43:45.747Z,0
2023-03-10T02:45:02.184Z,0
2023-03-10T02:46:18.385Z,0
2023-03-10T02:47:33.344Z,0
2023-03-10T02:48:49.780Z,0
2023-03-10T02:50:05.731Z,0
2023-03-10T02:51:21.925Z,0
2023-03-10T02:52:38.118Z,0
2023-03-10T02:53:45.000Z,0
2023-03-10T02:55:00.000Z,0
2023-03-10T02:56:24.742Z,0
2023-03-10T02:57:40.937Z,0
2023-03-10T02:58:57.131Z,0
2023-03-10T03:00:13.324Z,0
2023-03-10T03:01:28.792Z,0
2023-03-10T03:02:10.000Z,0
2023-03-10T03:02:43.995Z,0
2023-03-10T03:03:59.948Z,0
2023-03-10T03:05:16.141Z,0
2023-03-10T03:06:32.335Z,0
2023-03-10T03:09:04.722Z,0
2023-03-10T03:10:20.916Z,0
2023-03-10T03:11:37.110Z,0
2023-03-10T03:12:44.000Z,0
2023-03-10T03:14:00.000Z,0
2023-03-10T03:15:25.932Z,0
2023-03-10T03:16:32.000Z,0
2023-03-10T03:17:58.078Z,0
2023-03-10T03:19:13.287Z,0
2023-03-10T03:20:29.482Z,0
2023-03-10T03:21:45.929Z,0
2023-03-10T03:23:01.869Z,0
2023-03-10T03:24:18.311Z,0
2023-03-10T03:25:34.257Z,0
2023-03-10T03:26:41.000Z,0
2023-03-10T03:27:57.000Z,0
2023-03-10T03:30:38.058Z,0
2023-03-10T03:31:53.527Z,0
2023-03-10T03:32:59.000Z,0
2023-03-10T03:33:50.000Z,0
2023-03-10T03:34:24.928Z,0
2023-03-10T03:35:41.124Z,0
2023-03-10T03:36:48.000Z,0
2023-03-10T03:38:13.262Z,0
2023-03-10T03:40:43.942Z,0
2023-03-10T03:42:00.126Z,0
2023-03-10T03:43:07.000Z,0
2023-03-10T03:44:23.000Z,0
2023-03-10T03:45:48.710Z,0
2023-03-10T03:47:04.906Z,0
2023-03-10T03:48:21.098Z,0
2023-03-10T03:49:28.000Z,0
2023-03-10T03:50:53.241Z,0
2023-03-10T03:52:09.435Z,0
2023-03-10T03:53:25.872Z,0
2023-03-10T03:54:42.068Z,0
2023-03-10T03:55:49.000Z,0
2023-03-10T03:57:13.464Z,0
2023-03-10T03:58:29.420Z,0
2023-03-10T03:59:45.856Z,0
2023-03-10T04:01:01.807Z,0
2023-03-10T04:02:09.000Z,0
2023-03-10T04:03:34.194Z,0
2023-03-10T04:04:50.388Z,0
2023-03-10T04:06:06.582Z,0
2023-03-10T04:07:13.000Z,0
2023-03-10T04:08:39.225Z,0
2023-03-10T04:09:46.000Z,0
2023-03-10T04:11:11.594Z,0
2023-03-10T04:12:27.799Z,0
2023-03-10T04:13:43.006Z,0
2023-03-10T04:14:50.000Z,0
2023-03-10T04:16:15.386Z,0
2023-03-10T04:17:22.000Z,0
2023-03-10T04:18:47.535Z,0
2023-03-10T04:20:03.970Z,0
2023-03-10T04:21:20.169Z,0
2023-03-10T04:22:02.000Z,0
2023-03-10T04:22:27.000Z,0
2023-03-10T04:23:52.566Z,0
2023-03-10T04:25:08.503Z,0
2023-03-10T04:26:15.000Z,0
2023-03-10T04:28:57.084Z,0
2023-03-10T04:30:03.000Z,0
2023-03-10T04:31:28.488Z,0
2023-03-10T04:32:44.682Z,0
2023-03-10T04:34:00.875Z,0
2023-03-10T04:35:08.000Z,0
2023-03-10T04:36:24.000Z,0
2023-03-10T04:37:48.723Z,0
2023-03-10T04:39:04.676Z,0
2023-03-10T04:40:19.886Z,0
2023-03-10T04:41:36.081Z,0
2023-03-10T04:42:43.000Z,0
2023-03-10T04:43:58.000Z,0
2023-03-10T04:45:23.689Z,0
2023-03-10T04:46:39.141Z,0
2023-03-10T04:47:46.000Z,0
2023-03-10T04:49:11.537Z,0
2023-03-10T04:50:27.480Z,0
2023-03-10T04:51:34.000Z,0
2023-03-10T04:52:59.867Z,0
2023-03-10T04:54:16.061Z,0
2023-03-10T04:55:23.000Z,0
2023-03-10T04:56:48.696Z,0
2023-03-10T04:57:55.000Z,0
2023-03-10T04:59:20.836Z,0
2023-03-10T05:00:37.277Z,0
2023-03-10T05:01:53.223Z,0
2023-03-10T05:03:08.433Z,0
2023-03-10T05:04:15.000Z,0
2023-03-10T05:05:40.820Z,0
2023-03-10T05:06:57.014Z,0
2023-03-10T05:08:04.000Z,0
2023-03-10T05:09:29.401Z,0
2023-03-10T05:10:44.621Z,0
2023-03-10T05:12:01.062Z,0
2023-03-10T05:13:16.267Z,0
2023-03-10T05:14:32.218Z,0
2023-03-10T05:15:48.657Z,0
2023-03-10T05:17:04.605Z,0
2023-03-10T05:18:20.799Z,0
2023-03-10T05:19:36.029Z,0
2023-03-10T05:20:51.239Z,0
2023-03-10T05:22:07.433Z,0
2023-03-10T05:23:23.627Z,0
2023-03-10T05:24:40.069Z,0
2023-03-10T05:25:56.255Z,0
2023-03-10T05:27:12.207Z,0
2023-03-10T05:28:28.401Z,0
2023-03-10T05:29:44.595Z,0
2023-03-10T05:30:51.000Z,0
2023-03-10T05:32:17.229Z,0
2023-03-10T05:33:24.000Z,0
2023-03-10T05:34:40.000Z,0
2023-03-10T05:36:05.563Z,0
2023-03-10T05:37:20.774Z,0
2023-03-10T05:38:28.000Z,0
2023-03-10T05:39:53.160Z,0
2023-03-10T05:41:00.000Z,0
2023-03-10T05:41:51.000Z,0
2023-03-10T05:42:25.791Z,0
2023-03-10T05:43:32.000Z,0
2023-03-10T05:44:58.186Z,0
2023-03-10T05:46:05.000Z,0
2023-03-10T05:48:46.768Z,0
2023-03-10T05:50:02.962Z,0
2023-03-10T05:51:18.904Z,0
2023-03-10T05:52:35.340Z,0
2023-03-10T05:53:50.308Z,0
2023-03-10T05:55:06.744Z,0
2023-03-10T05:56:22.696Z,0
2023-03-10T05:57:38.889Z,0
2023-03-10T05:58:46.000Z,0
2023-03-10T06:00:11.276Z,0
2023-03-10T06:01:27.470Z,5
2023-03-10T06:02:43.924Z,5
2023-03-10T06:03:58.884Z,5
2023-03-10T06:05:06.000Z,5
2023-03-10T06:06:30.533Z,5
2023-03-10T06:07:46.483Z,5
2023-03-10T06:08:26.000Z,5
2023-03-10T06:09:01.702Z,5
2023-03-10T06:10:17.161Z,11
2023-03-10T06:11:24.000Z,11
2023-03-10T06:12:49.538Z,11
2023-03-10T06:15:21.936Z,5
2023-03-10T06:16:28.000Z,11
2023-03-10T06:17:54.319Z,11
2023-03-10T06:18:36.000Z,16
2023-03-10T06:19:10.268Z,11
2023-03-10T06:20:26.461Z,11
2023-03-10T06:21:07.000Z,16
2023-03-10T06:21:42.655Z,11
2023-03-10T06:22:58.849Z,11
2023-03-10T06:25:31.490Z,16
2023-03-10T06:28:02.640Z,16
2023-03-10T06:29:19.082Z,16
2023-03-10T06:30:35.028Z,16
2023-03-10T06:31:15.000Z,16
2023-03-10T06:31:51.466Z,16
2023-03-10T06:33:07.415Z,16
2023-03-10T06:34:14.000Z,16
2023-03-10T06:35:39.079Z,16
2023-03-10T06:38:10.234Z,16
2023-03-10T06:38:52.000Z,33
2023-03-10T06:39:26.428Z,22
2023-03-10T06:40:42.861Z,22
2023-03-10T06:41:59.056Z,28
2023-03-10T06:43:06.000Z,28
2023-03-10T06:45:46.424Z,39
2023-03-10T06:47:01.634Z,39
2023-03-10T06:48:08.000Z,39
2023-03-10T06:49:25.000Z,45
2023-03-10T06:50:41.000Z,50
2023-03-10T06:52:06.410Z,56
2023-03-10T06:53:13.000Z,61
2023-03-10T06:54:29.000Z,67
2023-03-10T06:55:54.992Z,73
2023-03-10T06:57:11.186Z,78
2023-03-10T06:58:27.379Z,90
2023-03-10T06:59:43.573Z,90
2023-03-10T07:01:00.009Z,95
2023-03-10T07:02:15.960Z,95
2023-03-10T07:03:31.420Z,101
2023-03-10T07:04:38.000Z,101
2023-03-10T07:06:03.804Z,106
2023-03-10T07:07:19.750Z,106
2023-03-10T07:08:35.944Z,112
2023-03-10T07:09:52.138Z,123
2023-03-10T07:10:59.000Z,135
2023-03-10T07:12:15.000Z,140
2023-03-10T07:13:40.718Z,135
2023-03-10T07:14:57.166Z,135
2023-03-10T07:15:38.000Z,140
2023-03-10T07:16:13.105Z,135
2023-03-10T07:17:29.299Z,140
2023-03-10T07:18:45.746Z,140
2023-03-10T07:20:01.686Z,140
2023-03-10T07:22:33.090Z,140
2023-03-10T07:23:40.000Z,140
2023-03-10T07:25:05.477Z,146
2023-03-10T07:26:21.670Z,146
2023-03-10T07:27:28.000Z,151
2023-03-10T07:28:54.306Z,151
2023-03-10T07:30:01.000Z,151
2023-03-10T07:31:26.695Z,157
2023-03-10T07:32:42.894Z,157
2023-03-10T07:33:59.086Z,157
2023-03-10T07:35:15.272Z,151
2023-03-10T07:36:31.472Z,151
2023-03-10T07:37:46.429Z,146
2023-03-10T07:39:02.623Z,140
2023-03-10T07:40:18.816Z,140
2023-03-10T07:41:35.254Z,140
2023-03-10T07:42:51.465Z,146
2023-03-10T07:43:58.000Z,146
2023-03-10T07:45:23.843Z,151
2023-03-10T07:46:40.041Z,151
2023-03-10T07:47:56.229Z,157
2023-03-10T07:49:12.418Z,163
2023-03-10T07:49:53.000Z,174
2023-03-10T07:50:28.364Z,163
2023-03-10T07:51:44.804Z,168
2023-03-10T07:52:25.000Z,191
2023-03-10T07:53:00.751Z,168
2023-03-10T07:54:16.945Z,168
2023-03-10T07:56:48.348Z,180
2023-03-10T07:59:20.978Z,191
2023-03-10T08:00:37.177Z,196
2023-03-10T08:01:53.123Z,208
2023-03-10T08:03:09.317Z,213
2023-03-10T08:04:25.510Z,213
2023-03-10T08:05:40.990Z,208
2023-03-10T08:06:55.940Z,202
2023-03-10T08:09:19.000Z,202
2023-03-10T08:10:44.520Z,208
2023-03-10T08:12:00.959Z,208
2023-03-10T08:13:16.198Z,213
2023-03-10T08:14:32.127Z,185
2023-03-10T08:15:47.336Z,180
2023-03-10T08:17:03.530Z,191
2023-03-10T08:18:48.660Z,202
2023-03-10T08:19:36.187Z,219
2023-03-10T08:20:52.354Z,241
2023-03-10T08:22:08.304Z,225
2023-03-10T08:23:24.498Z,174
2023-03-10T08:24:40.691Z,163
2023-03-10T08:25:56.885Z,157
2023-03-10T08:27:04.000Z,157
2023-03-10T08:28:29.273Z,168
2023-03-10T08:29:45.708Z,146
2023-03-10T08:31:01.660Z,140
2023-03-10T08:32:07.000Z,129
2023-03-10T08:33:24.000Z,118
2023-03-10T08:34:49.501Z,118
2023-03-10T08:35:56.000Z,129
2023-03-10T08:37:21.893Z,140
2023-03-10T08:38:37.837Z,123
2023-03-10T08:39:53.058Z,135
2023-03-10T08:41:08.267Z,180
2023-03-10T08:42:23.488Z,213
2023-03-10T08:43:29.000Z,241
2023-03-10T08:44:55.142Z,275
2023-03-10T08:46:11.085Z,286
2023-03-10T08:47:27.278Z,275
2023-03-10T08:48:43.720Z,247
2023-03-10T08:49:59.929Z,225
2023-03-10T08:51:16.104Z,230
2023-03-10T08:52:23.000Z,241
2023-03-10T08:53:48.246Z,258
2023-03-10T08:55:04.439Z,258
2023-03-10T08:56:20.633Z,241
2023-03-10T08:57:37.090Z,191
2023-03-10T08:58:53.020Z,163
2023-03-10T09:00:09.453Z,157
2023-03-10T09:01:15.000Z,140
2023-03-10T09:02:06.000Z,168
2023-03-10T09:02:40.616Z,140
2023-03-10T09:03:57.064Z,157
2023-03-10T09:05:13.257Z,174
2023-03-10T09:06:29.198Z,174
2023-03-10T09:08:51.000Z,168
2023-03-10T09:10:15.821Z,174
2023-03-10T09:11:31.292Z,185
2023-03-10T09:12:46.503Z,168
2023-03-10T09:13:53.000Z,151
2023-03-10T09:15:18.884Z,135
2023-03-10T09:16:35.084Z,129
2023-03-10T09:17:51.025Z,135
2023-03-10T09:19:07.219Z,146
2023-03-10T09:20:23.413Z,196
2023-03-10T09:22:28.213Z,140
2023-03-10T09:22:55.800Z,123
2023-03-10T09:24:11.994Z,129
2023-03-10T09:25:28.429Z,129
2023-03-10T09:26:44.644Z,123
2023-03-10T09:28:00.574Z,112
2023-03-10T09:29:15.784Z,140
2023-03-10T09:30:22.000Z,180
2023-03-10T09:31:48.171Z,241
2023-03-10T09:33:04.364Z,247
2023-03-10T09:34:10.000Z,225
2023-03-10T09:35:35.773Z,196
2023-03-10T09:36:51.966Z,225
2023-03-10T09:38:07.432Z,258
2023-03-10T09:39:22.641Z,275
2023-03-10T09:40:38.590Z,309
2023-03-10T09:41:44.000Z,320
2023-03-10T09:43:09.268Z,326
2023-03-10T09:44:25.213Z,326
2023-03-10T09:45:41.655Z,320
2023-03-10T09:46:57.600Z,315
2023-03-10T09:48:13.794Z,303
2023-03-10T09:49:29.988Z,303
2023-03-10T09:50:46.181Z,315
2023-03-10T09:52:02.628Z,331
2023-03-10T09:53:18.568Z,331
2023-03-10T09:54:35.001Z,309
2023-03-10T09:55:50.956Z,275
2023-03-10T09:57:07.394Z,236
2023-03-10T09:58:23.593Z,208
2023-03-10T09:59:29.000Z,168
2023-03-10T10:00:54.991Z,146
2023-03-10T10:02:01.000Z,146
2023-03-10T10:03:27.133Z,163
2023-03-10T10:04:43.581Z,146
2023-03-10T10:05:59.520Z,129
2023-03-10T10:07:15.962Z,129
2023-03-10T10:08:31.182Z,129
2023-03-10T10:09:46.144Z,185
2023-03-10T10:11:01.365Z,253
2023-03-10T10:12:07.000Z,236
2023-03-10T10:12:58.000Z,196
2023-03-10T10:13:32.768Z,219
2023-03-10T10:14:39.000Z,275
2023-03-10T10:16:05.411Z,337
2023-03-10T10:17:21.349Z,219
2023-03-10T10:19:44.000Z,236
2023-03-10T10:21:10.176Z,230
2023-03-10T10:22:17.000Z,208
2023-03-10T10:23:33.000Z,225
2023-03-10T10:24:58.752Z,264
2023-03-10T10:25:39.000Z,360
2023-03-10T10:26:14.949Z,320
2023-03-10T10:27:21.000Z,303
2023-03-10T10:28:47.335Z,337
2023-03-10T10:30:02.300Z,354
2023-03-10T10:32:34.687Z,320
2023-03-10T10:33:50.880Z,315
2023-03-10T10:34:58.000Z,320
2023-03-10T10:36:23.268Z,292
2023-03-10T10:37:38.735Z,281
2023-03-10T10:38:44.000Z,275
2023-03-10T10:40:09.891Z,331
2023-03-10T10:41:26.333Z,382
2023-03-10T10:42:41.549Z,360
2023-03-10T10:43:56.758Z,303
2023-03-10T10:45:12.707Z,292
2023-03-10T10:46:19.000Z,275
2023-03-10T10:47:45.094Z,337
2023-03-10T10:49:01.287Z,331
2023-03-10T10:50:17.724Z,264
2023-03-10T10:51:33.675Z,225
2023-03-10T10:52:40.000Z,253
2023-03-10T10:54:06.062Z,241
2023-03-10T10:55:22.256Z,180
2023-03-10T10:56:29.000Z,146
2023-03-10T10:57:54.643Z,140
2023-03-10T10:59:11.087Z,146
2023-03-10T11:00:26.046Z,129
2023-03-10T11:01:42.239Z,118
2023-03-10T11:02:58.433Z,163
2023-03-10T11:04:14.873Z,151
2023-03-10T11:05:30.820Z,140
2023-03-10T11:06:47.266Z,208
2023-03-10T11:07:54.000Z,253
2023-03-10T11:09:18.682Z,236
2023-03-10T11:09:57.000Z,253
2023-03-10T11:10:24.000Z,225
2023-03-10T11:11:49.130Z,219
2023-03-10T11:12:55.000Z,270
2023-03-10T11:14:20.261Z,275
2023-03-10T11:16:52.648Z,208
2023-03-10T11:17:59.000Z,202
2023-03-10T11:19:25.279Z,185
2023-03-10T11:20:41.228Z,213
2023-03-10T11:21:57.668Z,219
2023-03-10T11:23:13.617Z,208
2023-03-10T11:24:30.061Z,196
2023-03-10T11:25:46.006Z,174
2023-03-10T11:27:02.201Z,163
2023-03-10T11:28:18.396Z,140
2023-03-10T11:29:34.849Z,129
2023-03-10T11:30:49.802Z,151
2023-03-10T11:32:05.997Z,146
2023-03-10T11:33:22.191Z,140
2023-03-10T11:34:38.386Z,140
2023-03-10T11:35:45.000Z,118
2023-03-10T11:37:11.018Z,118
2023-03-10T11:38:25.996Z,123
2023-03-10T11:39:41.208Z,123
2023-03-10T11:40:48.000Z,123
2023-03-10T11:41:37.000Z,67
2023-03-10T11:42:12.872Z,101
2023-03-10T11:43:18.000Z,78
2023-03-10T11:44:44.280Z,67
2023-03-10T11:46:00.227Z,67
2023-03-10T11:48:32.618Z,61
2023-03-10T11:49:48.814Z,50
2023-03-10T11:51:05.008Z,50
2023-03-10T11:52:21.445Z,56
2023-03-10T11:53:37.398Z,61
2023-03-10T11:54:53.594Z,67
2023-03-10T11:55:34.000Z,95
2023-03-10T11:56:09.789Z,73
2023-03-10T11:56:51.000Z,135
2023-03-10T11:57:16.000Z,90
2023-03-10T11:58:42.180Z,90
2023-03-10T11:59:58.650Z,106
2023-03-10T12:03:36.000Z,135
2023-03-10T12:05:02.173Z,129
2023-03-10T12:06:09.000Z,180
2023-03-10T12:07:34.809Z,185
2023-03-10T12:08:50.038Z,213
2023-03-10T12:10:05.981Z,213
2023-03-10T12:11:21.192Z,236
2023-03-10T12:12:37.632Z,292
2023-03-10T12:13:43.000Z,253
2023-03-10T12:15:08.064Z,196
2023-03-10T12:16:24.015Z,163
2023-03-10T12:17:40.211Z,118
2023-03-10T12:18:56.406Z,84
2023-03-10T12:20:12.851Z,78
2023-03-10T12:21:29.048Z,78
2023-03-10T12:22:35.000Z,101
2023-03-10T12:23:52.000Z,135
2023-03-10T12:25:17.384Z,185
2023-03-10T12:26:24.000Z,241
2023-03-10T12:27:49.775Z,286
2023-03-10T12:29:05.970Z,309
2023-03-10T12:30:22.166Z,298
2023-03-10T12:31:28.000Z,286
2023-03-10T12:32:53.573Z,253
2023-03-10T12:34:10.016Z,236
2023-03-10T12:35:25.964Z,253
2023-03-10T12:36:42.408Z,264
2023-03-10T12:37:58.602Z,247
2023-03-10T12:39:14.550Z,236
2023-03-10T12:40:30.746Z,241
2023-03-10T12:41:46.941Z,236
2023-03-10T12:43:03.137Z,230
2023-03-10T12:44:19.332Z,236
2023-03-10T12:45:35.773Z,202
2023-03-10T12:46:51.723Z,202
2023-03-10T12:48:06.935Z,185
2023-03-10T12:49:23.130Z,196
2023-03-10T12:50:30.000Z,174
2023-03-10T12:51:55.770Z,174
2023-03-10T12:53:11.716Z,180
2023-03-10T12:54:18.000Z,168
2023-03-10T12:55:44.107Z,157
2023-03-10T12:56:51.000Z,146
2023-03-10T12:58:16.498Z,146
2023-03-10T12:59:32.933Z,151
2023-03-10T13:00:48.889Z,135
2023-03-10T13:02:05.085Z,140
2023-03-10T13:03:21.280Z,168
2023-03-10T13:04:36.491Z,174
2023-03-10T13:05:52.688Z,174
2023-03-10T13:07:08.883Z,174
2023-03-10T13:08:25.079Z,168
2023-03-10T13:09:41.274Z,135
2023-03-10T13:10:57.470Z,106
2023-03-10T13:12:13.910Z,112
2023-03-10T13:13:29.861Z,146
2023-03-10T13:14:46.304Z,146
2023-03-10T13:16:02.252Z,135
2023-03-10T13:17:09.000Z,129
2023-03-10T13:18:33.669Z,129
2023-03-10T13:19:48.880Z,129
2023-03-10T13:21:05.076Z,146
2023-03-10T13:22:11.000Z,163
2023-03-10T13:23:36.493Z,168
2023-03-10T13:24:42.000Z,168
2023-03-10T13:26:07.900Z,185
2023-03-10T13:27:24.095Z,180
2023-03-10T13:28:40.291Z,163
2023-03-10T13:29:56.486Z,163
2023-03-10T13:31:12.682Z,174
2023-03-10T13:32:28.877Z,202
2023-03-10T13:33:45.073Z,225
2023-03-10T13:35:01.269Z,208
2023-03-10T13:36:17.464Z,168
2023-03-10T13:37:33.659Z,174
2023-03-10T13:38:49.855Z,163
2023-03-10T13:40:53.881Z,196
2023-03-10T13:41:21.511Z,258
2023-03-10T13:42:37.458Z,270
2023-03-10T13:43:53.654Z,258
2023-03-10T13:45:09.849Z,253
2023-03-10T13:46:26.045Z,213
2023-03-10T13:47:42.240Z,191
2023-03-10T13:48:57.473Z,168
2023-03-10T13:50:12.684Z,129
2023-03-10T13:51:28.880Z,151
2023-03-10T13:53:11.837Z,157
2023-03-10T13:54:00.547Z,225
2023-03-10T13:55:06.000Z,219
2023-03-10T13:56:22.000Z,140
2023-03-10T13:57:48.149Z,90
2023-03-10T13:59:04.096Z,90
2023-03-10T14:00:11.000Z,151
2023-03-10T14:02:43.000Z,95
2023-03-10T14:04:09.128Z,112
2023-03-10T14:05:25.073Z,123
2023-03-10T14:06:41.269Z,123
2023-03-10T14:07:57.709Z,101
2023-03-10T14:09:13.660Z,106
2023-03-10T14:10:29.855Z,129
2023-03-10T14:11:45.326Z,129
2023-03-10T14:12:52.000Z,129
2023-03-10T14:13:43.000Z,135
2023-03-10T14:14:17.457Z,157
2023-03-10T14:15:24.000Z,163
2023-03-10T14:16:49.848Z,163
2023-03-10T14:18:06.291Z,157
2023-03-10T14:20:29.000Z,135
2023-03-10T14:21:53.657Z,157
2023-03-10T14:23:09.131Z,168
2023-03-10T14:24:25.064Z,185
2023-03-10T14:25:31.000Z,191
2023-03-10T14:26:55.498Z,163
2023-03-10T14:28:11.692Z,157
2023-03-10T14:29:28.131Z,225
2023-03-10T14:30:35.000Z,225
2023-03-10T14:32:00.531Z,208
2023-03-10T14:33:16.725Z,191
2023-03-10T14:34:23.000Z,163
2023-03-10T14:35:39.000Z,140
2023-03-10T14:37:05.310Z,140
2023-03-10T14:38:21.505Z,140
2023-03-10T14:39:28.000Z,112
2023-03-10T14:40:44.000Z,151
2023-03-10T14:42:10.111Z,157
2023-03-10T14:43:25.298Z,118
2023-03-10T14:44:32.000Z,123
2023-03-10T14:45:57.446Z,112
2023-03-10T14:47:04.000Z,140
2023-03-10T14:48:30.087Z,146
2023-03-10T14:49:36.000Z,168
2023-03-10T14:50:53.000Z,168
2023-03-10T14:52:18.424Z,180
2023-03-10T14:53:24.000Z,168
2023-03-10T14:54:48.857Z,202
2023-03-10T14:55:55.000Z,219
2023-03-10T14:57:11.000Z,275
2023-03-10T14:58:26.000Z,292
2023-03-10T14:59:51.682Z,303
2023-03-10T15:01:08.129Z,241
2023-03-10T15:02:24.322Z,208
2023-03-10T15:03:40.516Z,146
2023-03-10T15:04:47.000Z,135
2023-03-10T15:06:03.000Z,129
2023-03-10T15:07:28.856Z,106
2023-03-10T15:09:11.410Z,123
2023-03-10T15:10:01.488Z,123
2023-03-10T15:11:17.442Z,146
2023-03-10T15:12:33.638Z,129
2023-03-10T15:13:40.000Z,118
2023-03-10T15:14:55.000Z,140
2023-03-10T15:16:21.484Z,168
2023-03-10T15:17:37.681Z,196
2023-03-10T15:18:50.000Z,202
2023-03-10T15:20:10.082Z,191
2023-03-10T15:21:33.312Z,151
2023-03-10T15:22:33.000Z,140
2023-03-10T15:23:57.682Z,151
2023-03-10T15:25:13.888Z,157
2023-03-10T15:26:19.000Z,151
2023-03-10T15:27:44.069Z,140
2023-03-10T15:28:51.000Z,146
2023-03-10T15:30:07.000Z,140
2023-03-10T15:30:58.000Z,101
2023-03-10T15:31:32.908Z,118
2023-03-10T15:32:39.000Z,106
2023-03-10T15:33:55.000Z,112
2023-03-10T15:35:21.490Z,106
2023-03-10T15:37:44.000Z,84
2023-03-10T15:39:00.000Z,95
2023-03-10T15:40:26.274Z,78
2023-03-10T15:41:42.220Z,95
2023-03-10T15:42:58.416Z,135
2023-03-10T15:44:04.000Z,118
2023-03-10T15:45:30.074Z,157
2023-03-10T15:46:46.019Z,174
2023-03-10T15:48:02.463Z,185
2023-03-10T15:49:09.000Z,157
2023-03-10T15:50:25.000Z,118
2023-03-10T15:51:50.801Z,95
2023-03-10T15:52:57.000Z,67
2023-03-10T15:54:26.336Z,78
2023-03-10T15:55:37.675Z,78
2023-03-10T15:56:53.627Z,67
2023-03-10T15:58:09.823Z,73
2023-03-10T15:59:26.018Z,84
2023-03-10T16:00:41.241Z,90
2023-03-10T16:01:57.437Z,84
2023-03-10T16:03:13.633Z,90
2023-03-10T16:03:54.000Z,56
2023-03-10T16:04:20.000Z,84
2023-03-10T16:05:35.000Z,73
2023-03-10T16:06:52.000Z,73
2023-03-10T16:08:17.432Z,67
2023-03-10T16:10:40.000Z,50
2023-03-10T16:12:06.018Z,45
2023-03-10T16:13:13.000Z,45
2023-03-10T16:14:29.000Z,45
2023-03-10T16:15:45.000Z,45
2023-03-10T16:17:11.060Z,45
2023-03-10T16:18:27.241Z,45
2023-03-10T16:19:34.000Z,45
2023-03-10T16:20:59.388Z,39
2023-03-10T16:22:05.000Z,39
2023-03-10T16:23:30.795Z,33
2023-03-10T16:24:46.990Z,28
2023-03-10T16:26:03.187Z,28
2023-03-10T16:27:19.383Z,33
2023-03-10T16:28:35.579Z,33
2023-03-10T16:29:50.801Z,28
2023-03-10T16:31:52.932Z,28
2023-03-10T16:32:26.118Z,33
2023-03-10T16:33:37.680Z,39
2023-03-10T16:34:43.000Z,33
2023-03-10T16:36:09.088Z,28
2023-03-10T16:37:25.034Z,28
2023-03-10T16:38:41.231Z,33
2023-03-10T16:39:48.000Z,28
2023-03-10T16:41:13.622Z,22
2023-03-10T16:41:55.000Z,16
2023-03-10T16:42:20.000Z,16
2023-03-10T16:43:46.014Z,11
2023-03-10T16:44:53.000Z,11
2023-03-10T16:46:18.659Z,11
2023-03-10T16:48:50.796Z,22
2023-03-10T16:49:57.000Z,22
2023-03-10T16:51:13.000Z,22
2023-03-10T16:52:58.204Z,22
2023-03-10T16:53:54.597Z,16
2023-03-10T16:54:36.000Z,22
2023-03-10T16:55:10.792Z,16
2023-03-10T16:55:52.000Z,16
2023-03-10T16:56:26.988Z,16
2023-03-10T16:57:43.184Z,16
2023-03-10T16:58:59.380Z,22
2023-03-10T17:02:47.966Z,22
2023-03-10T17:04:04.164Z,16
2023-03-10T17:05:11.000Z,11
2023-03-10T17:06:27.000Z,11
2023-03-10T17:07:51.768Z,11
2023-03-10T17:09:07.964Z,11
2023-03-10T17:10:24.160Z,5
2023-03-10T17:11:40.621Z,5
2023-03-10T17:12:46.000Z,5
2023-03-10T17:14:11.034Z,5
2023-03-10T17:14:51.000Z,0
2023-03-10T17:15:26.987Z,5
2023-03-10T17:16:43.183Z,5
2023-03-10T17:17:50.000Z,5
2023-03-10T17:19:14.602Z,0
2023-03-10T17:21:46.010Z,0
2023-03-10T17:23:02.451Z,0
2023-03-10T17:24:18.402Z,0
2023-03-10T17:25:34.598Z,0
2023-03-10T17:26:51.043Z,0
2023-03-10T17:28:54.610Z,0
2023-03-10T17:29:23.186Z,0
2023-03-10T17:30:59.985Z,0
2023-03-10T17:31:46.000Z,0
2023-03-10T17:33:11.773Z,0
2023-03-10T17:34:28.225Z,0
2023-03-10T17:35:35.000Z,0
2023-03-10T17:36:51.000Z,0
2023-03-10T17:38:07.000Z,0
2023-03-10T17:39:22.000Z,0
2023-03-10T17:40:47.965Z,0
2023-03-10T17:42:04.421Z,0
2023-03-10T17:43:20.357Z,0
2023-03-10T17:44:36.553Z,0
2023-03-10T17:45:42.000Z,0
2023-03-10T17:46:57.000Z,0
2023-03-10T17:48:14.000Z,0
2023-03-10T17:49:38.659Z,0
2023-03-10T17:50:53.619Z,0
2023-03-10T17:52:10.069Z,0
2023-03-10T17:53:32.495Z,0
2023-03-10T17:55:05.687Z,0
2023-03-10T17:56:37.877Z,0
2023-03-10T17:57:14.600Z,0
2023-03-10T17:58:31.039Z,0
2023-03-10T17:59:47.237Z,0
2023-03-10T18:01:03.188Z,0
2023-03-10T18:02:19.633Z,0
2023-03-10T18:03:35.580Z,0
2023-03-10T18:04:51.040Z,0